Latest Weather Observations for Trangie

IDN60801

Issued at 3:03 pm EST Thursday 2 July 2015 (issued every 30 minutes, with the page automatically refreshed every 10 minutes)

About weather observations | Map of weather stations | Latest weather observations for NSW | Other Formats
Station Details ID: 051049 Name: TRANGIE RESEARCH STATION AWS Lat: -31.99 Lon: 147.95 Height: 215.0 m
Data from the previous 72 hours. | See also: Recent months at Trangie
Date/Time
EST
Temp
°C
App
Temp
°C
Dew
Point
Rel
Hum
%
Delta-T
°C
Wind Press
QNH
hPa
Press
MSL
hPa
Rain
since 9 am
mm
Dir
 
Spd
km/h
Gust
km/h
Spd
kts
Gust
kts
02/03:00pm 12.7 8.6 6.1 64 3.1 SW 17 30 9 16 1023.8 1024.1 0.2
02/02:30pm 12.5 7.6 5.0 60 3.5 WSW 20 28 11 15 1023.6 1023.9 0.2
02/02:00pm 12.3 7.7 5.5 63 3.2 SW 19 26 10 14 1023.6 1023.9 0.2
02/01:30pm 12.5 8.8 6.1 65 3.1 W 15 20 8 11 1024.1 1024.4 0.2
02/01:00pm 11.9 8.0 5.5 65 3.0 W 15 24 8 13 1024.6 1024.9 0.2
02/12:30pm 11.3 7.4 5.4 67 2.7 WSW 15 20 8 11 1025.2 1025.5 0.2
02/12:00pm 10.8 7.4 5.8 71 2.3 W 13 19 7 10 1025.6 1025.9 0.2
02/11:30am 10.1 6.7 5.9 75 2.0 WSW 13 20 7 11 1026.0 1026.4 0.0
02/11:00am 9.6 5.5 6.0 78 1.7 SW 17 24 9 13 1026.6 1027.0 0.0
02/10:30am 8.8 5.2 6.6 86 1.0 WSW 15 20 8 11 1026.7 1027.1 0.0
02/10:00am 7.6 4.4 6.7 94 0.4 SW 13 19 7 10 1026.8 1027.2 0.0
02/09:30am 5.3 2.1 5.2 99 0.0 WSW 11 13 6 7 1026.7 1027.1 0.0
02/09:00am 3.1 0.5 3.0 99 0.0 W 6 7 3 4 1026.5 1026.9 0.0
02/08:30am 2.2 0.2 2.1 99 0.0 W 2 7 1 4 1026.3 1026.7 0.0
02/08:00am 1.3 -0.5 1.2 99 0.0 CALM 0 0 0 0 1025.8 1026.1 0.0
02/07:30am 0.8 -1.1 0.7 99 0.0 CALM 0 0 0 0 1025.4 1025.7 0.0
02/07:00am 0.8 -1.1 0.7 99 0.0 CALM 0 0 0 0 1025.7 1026.0 0.0
02/06:30am 0.6 -1.3 0.5 99 0.0 CALM 0 0 0 0 1025.3 1025.6 0.0
02/06:00am 0.3 -1.7 0.2 99 0.0 CALM 0 0 0 0 1024.9 1025.2 0.0
02/05:30am 1.2 -0.6 1.1 99 0.0 CALM 0 0 0 0 1024.7 1025.0 0.0
02/05:00am 0.9 -1.0 0.8 99 0.0 CALM 0 0 0 0 1024.8 1025.1 0.0
02/04:30am 0.3 -1.7 0.2 99 0.0 CALM 0 0 0 0 1025.0 1025.3 0.0
02/04:00am 0.5 -1.4 0.4 99 0.0 CALM 0 0 0 0 1025.3 1025.6 0.0
02/03:30am 1.5 -1.4 1.4 99 0.0 SSE 6 7 3 4 1025.0 1025.3 0.0
02/03:00am 1.1 -2.1 1.0 99 0.0 N 7 9 4 5 1025.6 1025.9 0.0
02/02:30am 0.9 -2.3 0.8 99 0.0 WNW 7 9 4 5 1026.1 1026.5 0.0
02/02:00am 1.0 -2.0 0.9 99 0.0 N 6 9 3 5 1025.8 1026.1 0.0
02/01:30am 1.0 -0.8 0.9 99 0.0 CALM 0 0 0 0 1025.9 1026.2 0.0
02/01:00am 1.3 -0.5 1.2 99 0.0 CALM 0 0 0 0 1025.8 1026.1 0.0
02/12:30am 1.4 -0.4 1.3 99 0.0 CALM 0 0 0 0 1026.1 1026.5 0.0
02/12:00am 0.8 -2.2 0.7 99 0.0 N 6 7 3 4 1026.1 1026.5 0.0
 
Date/Time
EST
Temp
°C
App
Temp
°C
Dew
Point
Rel
Hum
%
Delta-T
°C
Wind Press
QNH
hPa
Press
MSL
hPa
Rain
since 9 am
mm
Dir
 
Spd
km/h
Gust
km/h
Spd
kts
Gust
kts
01/11:30pm 1.4 -1.7 1.3 99 0.0 WSW 7 9 4 5 1026.6 1027.0 0.0
01/11:00pm 0.8 -2.2 0.5 98 0.1 N 6 6 3 3 1026.5 1026.9 0.0
01/10:30pm 2.6 -0.3 2.5 99 0.0 S 7 9 4 5 1026.1 1026.5 0.0
01/10:00pm 1.6 -1.5 1.3 98 0.1 WSW 7 11 4 6 1026.4 1026.8 0.0
01/09:30pm 2.1 -0.3 2.0 99 0.0 WSW 4 7 2 4 1026.7 1027.1 0.0
01/09:00pm 2.6 1.0 2.2 97 0.2 CALM 0 0 0 0 1026.5 1026.9 0.0
01/08:30pm 3.2 1.6 2.3 94 0.4 CALM 0 0 0 0 1026.4 1026.8 0.0
01/08:00pm 4.1 1.3 3.4 95 0.3 NNW 7 7 4 4 1026.8 1027.2 0.0
01/07:30pm 3.7 1.0 2.4 91 0.5 WSW 6 7 3 4 1026.8 1027.2 0.0
01/07:00pm 4.8 1.9 2.7 86 0.9 N 7 9 4 5 1026.7 1027.1 0.0
01/06:30pm 5.0 2.4 3.3 89 0.7 N 6 7 3 4 1026.3 1026.7 0.0
01/06:00pm 4.9 1.6 2.4 84 1.0 SW 9 11 5 6 1026.4 1026.8 0.0
01/05:30pm 7.8 4.3 3.5 74 1.9 NNW 11 15 6 8 1026.2 1026.6 0.0
01/05:00pm 9.3 5.6 4.3 71 2.2 NNW 13 17 7 9 1025.8 1026.1 0.0
01/04:30pm 10.5 6.9 4.9 68 2.6 NNW 13 20 7 11 1025.5 1025.8 0.0
01/04:00pm 11.2 6.8 4.9 65 2.9 NNW 17 20 9 11 1025.5 1025.8 0.0
01/03:30pm 11.3 7.2 4.5 63 3.1 WNW 15 22 8 12 1025.5 1025.8 0.0
01/03:00pm 11.7 7.8 5.3 65 3.0 WSW 15 22 8 12 1025.8 1026.1 0.0
01/02:30pm 11.5 7.4 4.5 62 3.2 NNW 15 20 8 11 1026.0 1026.4 0.0
01/02:00pm 11.5 7.1 4.7 63 3.1 W 17 24 9 13 1026.0 1026.4 0.0
01/01:30pm 11.6 7.2 5.0 64 3.1 WSW 17 24 9 13 1026.4 1026.8 0.0
01/01:00pm 11.0 6.5 4.2 63 3.1 WNW 17 28 9 15 1026.8 1027.2 0.0
01/12:30pm 11.2 6.6 5.5 68 2.7 W 19 28 10 15 1027.3 1027.7 0.0
01/12:00pm 10.7 5.4 5.0 68 2.6 NW 22 32 12 17 1028.1 1028.4 0.0
01/11:30am 10.2 5.2 3.7 64 2.9 SW 19 28 10 15 1028.7 1029.0 0.0
01/11:00am 10.0 5.1 4.0 66 2.7 SSE 19 28 10 15 1029.0 1029.3 0.0
01/10:30am 9.6 5.1 4.4 70 2.3 WSW 17 24 9 13 1029.1 1029.4 0.0
01/10:00am 8.7 5.2 5.6 81 1.4 NNW 13 19 7 10 1029.0 1029.3 0.0
01/09:30am 7.7 3.8 5.2 84 1.1 NNW 15 20 8 11 1028.8 1029.0 0.0
01/09:00am 6.6 2.7 5.2 91 0.6 N 15 19 8 10 1028.6 1028.8 0.2
01/08:30am 5.5 2.2 4.8 95 0.3 N 11 19 6 10 1028.4 1028.6 0.2
01/08:00am 4.4 1.4 4.3 99 0.0 W 9 15 5 8 1028.2 1028.4 0.2
01/07:30am 3.6 0.1 3.5 99 0.0 N 11 15 6 8 1028.1 1028.3 0.2
01/07:00am 3.8 0.3 3.7 99 0.0 NNW 11 17 6 9 1027.5 1027.8 0.2
01/06:30am 4.0 0.9 3.7 98 0.1 NNW 9 15 5 8 1027.3 1027.6 0.2
01/06:00am 4.5 1.5 4.2 98 0.1 N 9 13 5 7 1027.0 1027.3 0.2
01/05:30am 5.2 1.9 4.6 96 0.3 NNW 11 17 6 9 1026.9 1027.2 0.2
01/05:00am 5.9 2.7 5.0 94 0.4 N 11 13 6 7 1026.8 1027.1 0.2
01/04:30am 6.8 3.8 5.9 94 0.4 ENE 11 15 6 8 1026.7 1027.0 0.2
01/04:00am 6.4 3.4 5.8 96 0.3 NW 11 15 6 8 1026.9 1027.2 0.2
01/03:30am 5.7 2.2 5.3 97 0.2 WSW 13 17 7 9 1027.0 1027.3 0.2
01/03:00am 5.7 2.9 5.0 95 0.3 N 9 15 5 8 1026.8 1027.1 0.2
01/02:30am 6.0 2.5 5.3 95 0.3 NW 13 17 7 9 1027.0 1027.3 0.2
01/02:00am 5.7 3.2 4.8 94 0.4 N 7 11 4 6 1027.0 1027.3 0.2
01/01:30am 5.9 2.6 4.4 90 0.7 SW 11 15 6 8 1027.3 1027.6 0.2
01/01:00am 7.0 4.2 5.0 87 0.9 N 9 11 5 6 1027.3 1027.6 0.2
01/12:30am 7.9 5.2 5.4 84 1.1 N 9 13 5 7 1027.5 1027.8 0.2
01/12:00am 8.2 5.5 5.5 83 1.2 SSE 9 15 5 8 1027.5 1027.8 0.2
 
Date/Time
EST
Temp
°C
App
Temp
°C
Dew
Point
Rel
Hum
%
Delta-T
°C
Wind Press
QNH
hPa
Press
MSL
hPa
Rain
since 9 am
mm
Dir
 
Spd
km/h
Gust
km/h
Spd
kts
Gust
kts
30/11:30pm 8.5 5.8 5.6 82 1.3 SSE 9 15 5 8 1027.6 1027.9 0.2
30/11:00pm 8.8 5.8 5.9 82 1.3 SSE 11 17 6 9 1027.6 1027.9 0.2
30/10:30pm 9.0 6.1 6.3 83 1.3 SSE 11 19 6 10 1027.7 1028.0 0.2
30/10:00pm 9.4 6.6 6.8 84 1.2 SSE 11 19 6 10 1027.6 1027.9 0.2
30/09:30pm 9.6 6.9 7.2 85 1.1 SSE 11 20 6 11 1027.9 1028.1 0.2
30/09:00pm 9.9 6.9 7.5 85 1.2 SSE 13 19 7 10 1027.9 1028.1 0.2
30/08:30pm 10.4 7.5 8.0 85 1.2 SSE 13 17 7 9 1028.0 1028.2 0.2
30/08:00pm 10.2 8.4 8.1 87 1.0 S 7 11 4 6 1027.6 1027.9 0.2
30/07:30pm 10.6 8.5 8.4 86 1.1 N 9 11 5 6 1027.5 1027.8 0.2
30/07:00pm 10.7 9.1 8.8 88 0.9 S 7 11 4 6 1027.1 1027.4 0.2
30/06:30pm 11.3 9.8 9.2 87 1.1 N 7 11 4 6 1027.1 1027.4 0.2
30/06:00pm 11.7 10.4 9.8 88 1.0 S 7 11 4 6 1026.8 1027.1 0.2
30/05:30pm 12.3 11.0 10.0 86 1.2 SSE 7 13 4 7 1026.6 1026.9 0.2
30/05:00pm 12.5 11.4 10.6 88 1.0 NNE 7 11 4 6 1026.5 1026.8 0.2
30/04:30pm 13.7 12.4 9.9 78 2.0 SSE 7 13 4 7 1026.3 1026.6 0.2
30/04:00pm 14.3 13.0 9.9 75 2.3 SSE 7 11 4 6 1026.4 1026.7 0.2
30/03:30pm 13.5 12.3 9.7 78 2.0 E 6 11 3 6 1026.2 1026.5 0.2
30/03:00pm 13.3 12.1 10.3 82 1.6 SSE 7 13 4 7 1026.3 1026.6 0.2
30/02:30pm 13.3 12.3 11.0 86 1.2 SSE 7 9 4 5 1026.2 1026.5 0.2
30/02:00pm 13.4 12.2 11.6 89 1.0 SE 9 13 5 7 1026.3 1026.6 0.2
30/01:30pm 13.6 12.9 11.3 86 1.2 ESE 6 9 3 5 1026.9 1027.2 0.2
30/01:00pm 12.6 11.9 11.5 93 0.6 SSE 6 9 3 5 1027.4 1027.7 0.2
30/12:30pm 12.5 11.2 11.2 92 0.7 W 9 11 5 6 1027.9 1028.1 0.2
30/12:00pm 12.6 11.7 10.8 89 0.9 ESE 6 11 3 6 1028.3 1028.5 0.0
30/11:30am 12.8 11.7 10.5 86 1.2 SSW 7 9 4 5 1028.7 1028.9 0.0
30/11:00am 12.9 12.1 9.7 81 1.6 SE 4 7 2 4 1028.8 1029.0 0.0
30/10:30am 12.7 11.4 10.1 84 1.4 SSE 7 11 4 6 1028.9 1029.1 0.0
30/10:00am 12.1 10.9 9.7 85 1.2 SE 6 11 3 6 1029.0 1029.2 0.0
30/09:30am 11.7 10.3 9.6 87 1.1 ESE 7 11 4 6 1029.0 1029.2 0.0
30/09:00am 10.8 9.3 9.2 90 0.8 ESE 7 9 4 5 1028.7 1028.9 0.2
30/08:30am 9.2 7.1 8.3 94 0.4 E 9 15 5 8 1028.6 1028.8 0.2
30/08:00am 8.8 6.6 8.0 95 0.4 E 9 13 5 7 1028.5 1028.7 0.2
30/07:30am 8.0 6.1 7.6 97 0.2 ESE 7 11 4 6 1028.6 1028.8 0.2
30/07:00am 7.8 5.8 7.1 95 0.3 SE 7 9 4 5 1028.6 1028.8 0.2
30/06:30am 8.4 6.4 7.2 92 0.6 E 7 9 4 5 1028.5 1028.7 0.2
30/06:00am 8.5 6.6 7.4 93 0.5 ESE 7 13 4 7 1027.9 1028.1 0.2
30/05:30am 7.9 6.1 7.0 94 0.4 SE 6 7 3 4 1028.0 1028.2 0.2
30/05:00am 8.5 7.0 6.8 89 0.8 SSE 4 9 2 5 1028.2 1028.4 0.2
30/04:30am 8.8 6.9 7.4 91 0.7 S 7 11 4 6 1028.2 1028.4 0.2
30/04:00am 8.9 7.0 7.5 91 0.7 NE 7 13 4 7 1027.9 1028.1 0.2
30/03:30am 9.1 8.0 7.1 87 1.0 SE 2 7 1 4 1027.6 1027.9 0.2
30/03:00am 8.9 7.2 6.0 82 1.3 ESE 4 9 2 5 1027.9 1028.1 0.2
30/02:30am 8.9 6.8 5.8 81 1.4 ENE 6 9 3 5 1028.0 1028.2 0.2
30/02:00am 8.9 6.6 5.8 81 1.4 ENE 7 9 4 5 1028.2 1028.4 0.2
30/01:30am 8.6 7.6 5.7 82 1.3 CALM 0 0 0 0 1028.6 1028.8 0.2
30/01:00am 8.2 7.4 6.5 89 0.8 CALM 0 0 0 0 1028.8 1029.0 0.2
30/12:30am 8.2 7.4 6.3 88 0.9 CALM 0 0 0 0 1028.9 1029.1 0.2
30/12:00am 8.8 7.8 5.5 80 1.5 CALM 0 0 0 0 1028.9 1029.1 0.2
 
Date/Time
EST
Temp
°C
App
Temp
°C
Dew
Point
Rel
Hum
%
Delta-T
°C
Wind Press
QNH
hPa
Press
MSL
hPa
Rain
since 9 am
mm
Dir
 
Spd
km/h
Gust
km/h
Spd
kts
Gust
kts
29/11:30pm 8.9 7.8 5.1 77 1.7 CALM 0 0 0 0 1029.2 1029.4 0.2
29/11:00pm 8.5 7.7 6.3 86 1.0 CALM 0 4 0 2 1029.4 1029.6 0.2
29/10:30pm 8.4 7.1 5.9 84 1.1 SE 2 6 1 3 1029.4 1029.6 0.2
29/10:00pm 8.6 7.6 5.7 82 1.3 CALM 0 0 0 0 1029.6 1029.8 0.2
29/09:30pm 8.3 7.4 6.1 86 1.0 CALM 0 0 0 0 1029.9 1030.1 0.2
29/09:00pm 8.3 7.3 5.6 83 1.2 CALM 0 0 0 0 1029.9 1030.1 0.2
29/08:30pm 7.7 6.6 5.2 84 1.1 CALM 0 0 0 0 1030.2 1030.5 0.2
29/08:00pm 7.7 6.6 5.3 85 1.1 CALM 0 0 0 0 1030.4 1030.7 0.2
29/07:30pm 7.8 6.6 4.7 81 1.4 CALM 0 0 0 0 1030.4 1030.7 0.2
29/07:00pm 8.2 6.9 4.2 76 1.7 CALM 0 0 0 0 1030.2 1030.5 0.2
29/06:30pm 8.1 6.9 4.5 78 1.6 CALM 0 0 0 0 1030.1 1030.4 0.2
29/06:00pm 9.3 8.0 3.9 69 2.4 CALM 0 0 0 0 1029.8 1030.0 0.2
29/05:30pm 11.2 9.8 3.7 60 3.4 CALM 0 0 0 0 1029.4 1029.6 0.2
29/05:00pm 13.5 12.1 3.8 52 4.4 CALM 0 0 0 0 1029.4 1029.6 0.2
29/04:30pm 15.8 15.0 6.5 54 4.6 CALM 0 0 0 0 1029.5 1029.7 0.2
29/04:00pm 16.3 15.6 7.0 54 4.6 CALM 0 0 0 0 1029.4 1029.6 0.2
29/03:30pm 16.5 14.3 5.5 48 5.3 W 6 7 3 4 1029.2 1029.4 0.2

Other Formats:

Comma delimited format used in spreadsheet applications
http://www.bom.gov.au/fwo/IDN60801/IDN60801.95710.axf

JavaScript Object Notation format (JSON) in row-major order
http://www.bom.gov.au/fwo/IDN60801/IDN60801.95710.json